Time;durP1;ratioP1;P1;durP2;ratioP2;P2;SDS_P1;SDS_P2;PMS_P1;PMS_P2;Temp;Humidity;BMP_temperature;BMP_pressure;BME280_temperature;BME280_humidity;BME280_pressure;Samples;Min_cycle;Max_cycle;Signal;HPM_P1;HPM_P2
2023/11/01 00:01:46;;;;;;;15.00;12.40;;;10.40;99.90;;;;;;5027280;28;20040;-71
2023/11/01 00:04:12;;;;;;;15.00;11.93;;;10.50;99.90;;;;;;5027752;28;20056;-72
2023/11/01 00:06:39;;;;;;;19.13;13.75;;;10.50;99.90;;;;;;5028621;28;20045;-74
2023/11/01 00:09:06;;;;;;;20.13;14.65;;;10.40;99.90;;;;;;5033007;28;20630;-72
2023/11/01 00:11:33;;;;;;;22.00;13.48;;;10.50;99.90;;;;;;5031562;28;20045;-70
2023/11/01 00:13:59;;;;;;;19.58;14.23;;;10.50;99.90;;;;;;5029575;28;20096;-73
2023/11/01 00:16:26;;;;;;;18.52;12.15;;;10.50;99.90;;;;;;5029429;28;20151;-71
2023/11/01 00:18:54;;;;;;;22.50;13.43;;;10.50;99.90;;;;;;5027357;28;20044;-73
2023/11/01 00:21:21;;;;;;;23.65;13.27;;;10.40;99.90;;;;;;5032848;28;20388;-72
2023/11/01 00:23:48;;;;;;;16.52;12.45;;;10.40;99.90;;;;;;5023511;28;20049;-73
2023/11/01 00:26:14;;;;;;;20.08;13.30;;;10.40;99.90;;;;;;5031511;28;20049;-71
2023/11/01 00:28:44;;;;;;;18.00;12.15;;;10.30;99.90;;;;;;5026451;28;20045;-72
2023/11/01 00:31:11;;;;;;;13.90;10.85;;;10.40;99.90;;;;;;5032541;28;20076;-73
2023/11/01 00:33:38;;;;;;;13.98;10.88;;;10.40;99.90;;;;;;5028517;28;20102;-72
2023/11/01 00:36:05;;;;;;;17.85;11.25;;;10.40;99.90;;;;;;5038173;28;20048;-70
2023/11/01 00:38:35;;;;;;;14.43;10.80;;;10.50;99.90;;;;;;5058359;28;20044;-74
2023/11/01 00:41:03;;;;;;;16.80;10.45;;;10.50;99.90;;;;;;5039870;28;20041;-72
2023/11/01 00:43:30;;;;;;;16.30;10.38;;;10.50;99.90;;;;;;5033841;28;20630;-74
2023/11/01 00:45:58;;;;;;;10.57;7.95;;;10.40;99.90;;;;;;5030764;28;20795;-74
2023/11/01 00:48:25;;;;;;;12.82;7.90;;;10.40;99.90;;;;;;5028053;28;20045;-73
2023/11/01 00:50:52;;;;;;;11.00;6.30;;;10.40;99.90;;;;;;5012014;28;20044;-74
2023/11/01 00:53:21;;;;;;;13.13;6.00;;;10.40;99.90;;;;;;5033639;28;20507;-74
2023/11/01 00:55:47;;;;;;;6.78;5.75;;;10.40;99.90;;;;;;5029259;28;20570;-75
2023/11/01 00:58:14;;;;;;;10.85;5.20;;;10.40;99.90;;;;;;5032354;28;20567;-75
2023/11/01 01:00:41;;;;;;;8.48;5.70;;;10.40;99.90;;;;;;5010297;28;20435;-75
2023/11/01 01:03:10;;;;;;;8.70;5.57;;;10.40;99.90;;;;;;5032265;28;20129;-74
2023/11/01 01:05:37;;;;;;;5.88;4.50;;;10.40;99.90;;;;;;5012438;28;20052;-74
2023/11/01 01:08:04;;;;;;;8.40;4.82;;;10.40;99.90;;;;;;5028228;28;20686;-75
2023/11/01 01:10:31;;;;;;;9.13;4.85;;;10.40;99.90;;;;;;5027838;28;20041;-75
2023/11/01 01:12:58;;;;;;;6.97;5.18;;;10.40;99.90;;;;;;5028064;28;20139;-74
2023/11/01 01:15:25;;;;;;;6.18;5.03;;;10.50;99.90;;;;;;5014736;28;20182;-75
2023/11/01 01:17:53;;;;;;;8.15;4.85;;;10.50;99.90;;;;;;5028390;28;20051;-75
2023/11/01 01:20:20;;;;;;;8.20;4.32;;;10.50;99.90;;;;;;5033182;28;20049;-74
2023/11/01 01:22:47;;;;;;;6.80;4.65;;;10.50;99.90;;;;;;5023816;28;20053;-75
2023/11/01 01:25:14;;;;;;;7.95;4.32;;;10.40;99.90;;;;;;5032431;28;20060;-73
2023/11/01 01:27:41;;;;;;;7.22;4.63;;;10.40;99.90;;;;;;5015665;28;20055;-74
2023/11/01 01:30:09;;;;;;;4.65;3.90;;;10.40;99.90;;;;;;5049336;28;20095;-76
2023/11/01 01:32:36;;;;;;;13.88;6.20;;;10.40;99.90;;;;;;5026700;28;20054;-74
2023/11/01 01:35:03;;;;;;;7.22;5.25;;;10.40;99.90;;;;;;5011706;28;20084;-72
2023/11/01 01:37:30;;;;;;;7.97;4.55;;;10.40;99.90;;;;;;5034193;28;20052;-73
2023/11/01 01:39:57;;;;;;;4.97;4.00;;;10.40;99.90;;;;;;5011724;28;20755;-73
2023/11/01 01:42:24;;;;;;;7.80;4.88;;;10.40;99.90;;;;;;5030318;28;20127;-74
2023/11/01 01:44:50;;;;;;;7.07;4.30;;;10.40;99.90;;;;;;5020087;28;20041;-73
2023/11/01 01:47:18;;;;;;;5.35;4.50;;;10.40;99.90;;;;;;5027226;28;20118;-75
2023/11/01 01:49:46;;;;;;;6.57;4.25;;;10.50;99.90;;;;;;5011052;28;20457;-74
2023/11/01 01:52:13;;;;;;;8.25;4.85;;;10.40;99.90;;;;;;5025222;28;20045;-75
2023/11/01 01:54:40;;;;;;;4.50;4.10;;;10.50;99.90;;;;;;5025654;28;20124;-73
2023/11/01 01:57:09;;;;;;;9.05;4.85;;;10.50;99.90;;;;;;5021665;28;20060;-73
2023/11/01 01:59:36;;;;;;;6.60;4.25;;;10.50;99.90;;;;;;5032752;28;20116;-72
2023/11/01 02:02:04;;;;;;;5.20;4.60;;;10.40;99.90;;;;;;5037225;28;20620;-71
2023/11/01 02:04:31;;;;;;;7.90;4.50;;;10.40;99.90;;;;;;5044035;28;20049;-71
2023/11/01 02:06:58;;;;;;;7.15;4.65;;;10.40;99.90;;;;;;5024646;28;20131;-72
2023/11/01 02:09:25;;;;;;;7.78;5.63;;;10.40;99.90;;;;;;5044016;28;20041;-75
2023/11/01 02:11:52;;;;;;;7.03;3.90;;;10.40;99.90;;;;;;5029491;28;20104;-74
2023/11/01 02:14:21;;;;;;;11.20;5.13;;;10.40;99.90;;;;;;5047710;28;20045;-75
2023/11/01 02:16:49;;;;;;;8.23;5.15;;;10.30;99.90;;;;;;5039586;28;20709;-74
2023/11/01 02:19:16;;;;;;;8.73;5.38;;;10.30;99.90;;;;;;5020527;28;20041;-76
2023/11/01 02:21:44;;;;;;;11.05;4.80;;;10.30;99.90;;;;;;5011805;28;20334;-74
2023/11/01 02:24:10;;;;;;;7.43;4.75;;;10.30;99.90;;;;;;5020447;28;20074;-75
2023/11/01 02:26:37;;;;;;;7.55;4.90;;;10.30;99.90;;;;;;5025103;28;20041;-76
2023/11/01 02:29:05;;;;;;;12.52;4.80;;;10.30;99.90;;;;;;5020447;28;20063;-76
2023/11/01 02:31:32;;;;;;;7.60;4.97;;;10.30;99.90;;;;;;5026921;28;20049;-76
2023/11/01 02:33:59;;;;;;;11.20;5.05;;;10.20;99.90;;;;;;5021947;28;20045;-74
2023/11/01 02:36:26;;;;;;;12.23;6.20;;;10.20;99.90;;;;;;5025620;28;20053;-75
2023/11/01 02:38:52;;;;;;;9.48;4.78;;;10.20;99.90;;;;;;5021417;28;20053;-76
2023/11/01 02:41:20;;;;;;;10.90;4.88;;;10.20;99.90;;;;;;5006900;28;20685;-75
2023/11/01 02:43:46;;;;;;;10.65;4.95;;;10.20;99.90;;;;;;5027094;28;20051;-75
2023/11/01 02:46:13;;;;;;;8.23;4.45;;;10.20;99.90;;;;;;5026970;28;20056;-76
2023/11/01 02:48:40;;;;;;;10.02;4.95;;;10.20;99.90;;;;;;5045123;28;20427;-74
2023/11/01 02:51:07;;;;;;;16.77;4.88;;;10.20;99.90;;;;;;5010340;28;20048;-76
2023/11/01 02:53:34;;;;;;;12.15;3.97;;;10.20;99.90;;;;;;5026664;28;20053;-75
2023/11/01 02:56:00;;;;;;;10.40;4.82;;;10.20;99.90;;;;;;5024853;28;20041;-76
2023/11/01 02:58:29;;;;;;;11.45;4.85;;;10.20;99.90;;;;;;5026580;28;20042;-75
2023/11/01 03:00:56;;;;;;;16.45;4.95;;;10.30;99.90;;;;;;5025863;28;20048;-75
2023/11/01 03:03:23;;;;;;;6.65;4.85;;;10.30;99.90;;;;;;5027887;28;20056;-75
2023/11/01 03:05:49;;;;;;;10.40;5.38;;;10.40;99.90;;;;;;5025086;28;20045;-75
2023/11/01 03:08:16;;;;;;;9.32;4.45;;;10.40;99.90;;;;;;5015401;28;20095;-75
2023/11/01 03:10:43;;;;;;;15.23;5.70;;;10.40;99.90;;;;;;5026110;28;20068;-75
2023/11/01 03:13:10;;;;;;;11.23;5.35;;;10.40;99.90;;;;;;5022318;28;20044;-75
2023/11/01 03:15:37;;;;;;;7.65;4.57;;;10.40;99.90;;;;;;5025794;28;20041;-75
2023/11/01 03:18:04;;;;;;;8.57;4.90;;;10.40;99.90;;;;;;5025250;28;20565;-76
2023/11/01 03:20:33;;;;;;;8.77;4.88;;;10.40;99.90;;;;;;5028115;28;20056;-74
2023/11/01 03:23:00;;;;;;;11.50;5.88;;;10.40;99.90;;;;;;5026740;28;20053;-76
2023/11/01 03:25:28;;;;;;;10.73;5.28;;;10.40;99.90;;;;;;5014343;28;20500;-75
2023/11/01 03:27:54;;;;;;;8.57;5.97;;;10.50;99.90;;;;;;5021745;28;20053;-76
2023/11/01 03:30:22;;;;;;;10.43;5.88;;;10.50;99.90;;;;;;5028033;28;20696;-76
2023/11/01 03:32:49;;;;;;;11.80;5.95;;;10.40;99.90;;;;;;5028945;28;20049;-73
2023/11/01 03:35:16;;;;;;;16.38;6.32;;;10.40;99.90;;;;;;5013244;28;20034;-75
2023/11/01 03:37:43;;;;;;;7.97;6.07;;;10.30;99.90;;;;;;5026606;28;20053;-74
2023/11/01 03:40:10;;;;;;;10.60;5.97;;;10.20;99.90;;;;;;5025904;28;23157;-75
2023/11/01 03:42:37;;;;;;;13.23;6.68;;;10.20;99.90;;;;;;5028415;28;20835;-75
2023/11/01 03:45:05;;;;;;;11.13;6.28;;;10.20;99.90;;;;;;5020916;28;20052;-75
2023/11/01 03:47:32;;;;;;;10.77;6.30;;;10.20;99.90;;;;;;5011161;28;20045;-76
2023/11/01 03:50:00;;;;;;;8.63;5.88;;;10.20;99.90;;;;;;5025436;28;20104;-75
2023/11/01 03:52:27;;;;;;;16.85;6.00;;;10.20;99.90;;;;;;5027015;28;20038;-76
2023/11/01 03:54:53;;;;;;;11.80;6.30;;;10.10;99.90;;;;;;5027329;28;20107;-76
2023/11/01 03:57:23;;;;;;;11.15;6.22;;;10.10;99.90;;;;;;5024937;28;20065;-76
2023/11/01 03:59:50;;;;;;;10.25;5.70;;;10.10;99.90;;;;;;5020002;28;20054;-74
2023/11/01 04:02:17;;;;;;;13.98;6.90;;;10.10;99.90;;;;;;5027883;28;20602;-75
2023/11/01 04:04:44;;;;;;;14.60;5.60;;;10.10;99.90;;;;;;5034673;28;20446;-75
2023/11/01 04:07:11;;;;;;;8.00;6.38;;;10.10;99.90;;;;;;5023984;28;20052;-75
2023/11/01 04:09:37;;;;;;;11.48;5.75;;;10.10;99.90;;;;;;5024653;28;20052;-76
2023/11/01 04:12:04;;;;;;;10.40;6.78;;;10.10;99.90;;;;;;5022760;28;20057;-75
2023/11/01 04:14:31;;;;;;;8.65;6.60;;;10.10;99.90;;;;;;5022696;28;20056;-76
2023/11/01 04:16:59;;;;;;;8.10;7.38;;;10.10;99.90;;;;;;5026080;28;20681;-74
2023/11/01 04:19:26;;;;;;;13.35;7.15;;;10.20;99.90;;;;;;5026125;28;20489;-74
2023/11/01 04:21:53;;;;;;;10.05;7.30;;;10.20;99.90;;;;;;5025784;28;20548;-75
2023/11/01 04:24:20;;;;;;;13.90;8.50;;;10.20;99.90;;;;;;5031666;28;20582;-75
2023/11/01 04:26:47;;;;;;;13.55;8.18;;;10.10;99.90;;;;;;5028952;28;20707;-76
2023/11/01 04:29:14;;;;;;;19.33;8.55;;;10.10;99.90;;;;;;5023216;28;20056;-76
2023/11/01 04:31:40;;;;;;;19.20;9.38;;;10.10;99.90;;;;;;5025145;28;20091;-75
2023/11/01 04:34:07;;;;;;;12.15;8.82;;;10.10;99.90;;;;;;5028016;28;20060;-74
2023/11/01 04:36:35;;;;;;;18.17;9.43;;;10.10;99.90;;;;;;5010698;28;20049;-76
2023/11/01 04:39:03;;;;;;;11.63;9.02;;;10.10;99.90;;;;;;5028618;28;20397;-75
2023/11/01 04:41:30;;;;;;;14.35;9.48;;;10.00;99.90;;;;;;5044923;28;20045;-73
2023/11/01 04:43:57;;;;;;;13.18;9.65;;;10.00;99.90;;;;;;5053680;28;20045;-74
2023/11/01 04:46:24;;;;;;;21.02;10.05;;;10.10;99.90;;;;;;5057291;28;20046;-73
2023/11/01 04:48:50;;;;;;;13.18;9.50;;;10.00;99.90;;;;;;5039996;28;20045;-76
2023/11/01 04:51:17;;;;;;;12.73;10.05;;;10.00;99.90;;;;;;5031427;28;20045;-76
2023/11/01 04:53:44;;;;;;;15.20;9.63;;;10.00;99.90;;;;;;5034698;28;20136;-76
2023/11/01 04:56:11;;;;;;;28.50;9.90;;;9.90;99.90;;;;;;5030985;28;20141;-76
2023/11/01 04:58:38;;;;;;;16.17;9.15;;;9.90;99.90;;;;;;5028945;28;20049;-76
2023/11/01 05:01:06;;;;;;;17.55;9.63;;;9.90;99.90;;;;;;5025070;28;20051;-76
2023/11/01 05:03:36;;;;;;;18.38;8.50;;;9.90;99.90;;;;;;5031579;28;20108;-75
2023/11/01 05:06:04;;;;;;;17.13;8.52;;;9.90;99.90;;;;;;5025679;28;20075;-76
2023/11/01 05:08:31;;;;;;;12.13;8.93;;;10.00;99.90;;;;;;5032628;28;20042;-75
2023/11/01 05:10:59;;;;;;;12.18;8.48;;;10.00;99.90;;;;;;5030235;28;20503;-75
2023/11/01 05:13:26;;;;;;;11.77;8.23;;;10.00;99.90;;;;;;5043742;28;20033;-74
2023/11/01 05:15:54;;;;;;;11.77;7.72;;;10.00;99.90;;;;;;5048208;28;20041;-74
2023/11/01 05:18:21;;;;;;;11.30;8.13;;;10.00;99.90;;;;;;5043754;28;20080;-75
2023/11/01 05:20:48;;;;;;;12.50;7.68;;;10.00;99.90;;;;;;5026393;28;20057;-74
2023/11/01 05:23:15;;;;;;;16.13;8.57;;;10.00;99.90;;;;;;5027470;28;20041;-76
2023/11/01 05:25:42;;;;;;;12.88;7.80;;;10.00;99.90;;;;;;5032138;28;20478;-74
2023/11/01 05:28:10;;;;;;;18.15;7.82;;;10.00;99.90;;;;;;5024573;28;20041;-75
2023/11/01 05:30:36;;;;;;;17.58;7.60;;;10.00;99.90;;;;;;5028341;28;20045;-75
2023/11/01 05:33:03;;;;;;;11.30;7.35;;;10.00;99.90;;;;;;5027384;28;20047;-74
2023/11/01 05:35:30;;;;;;;10.23;7.22;;;10.00;99.90;;;;;;5026532;28;20067;-75
2023/11/01 05:37:57;;;;;;;11.73;8.20;;;10.00;99.90;;;;;;5026779;28;20066;-73
2023/11/01 05:40:24;;;;;;;14.93;7.30;;;10.00;99.90;;;;;;5030175;28;20654;-75
2023/11/01 05:42:51;;;;;;;15.50;7.32;;;10.00;99.90;;;;;;5009952;28;20111;-74
2023/11/01 05:45:20;;;;;;;15.00;7.88;;;10.00;99.90;;;;;;5023241;28;20732;-73
2023/11/01 05:47:51;;;;;;;17.13;7.63;;;10.00;99.90;;;;;;5022536;28;20047;-75
2023/11/01 05:50:24;;;;;;;13.30;7.25;;;10.00;99.90;;;;;;5027028;28;20667;-73
2023/11/01 05:52:55;;;;;;;10.60;7.95;;;10.00;99.90;;;;;;5036284;28;20052;-75
2023/11/01 05:55:24;;;;;;;15.00;7.95;;;10.00;99.90;;;;;;5019219;28;20049;-72
2023/11/01 05:58:08;;;;;;;11.93;7.78;;;10.00;99.90;;;;;;5024423;28;20048;-74
2023/11/01 06:00:36;;;;;;;11.60;7.40;;;10.10;99.90;;;;;;5030366;28;20100;-75
2023/11/01 06:03:06;;;;;;;15.50;7.60;;;10.00;99.90;;;;;;5025861;28;20056;-74
2023/11/01 06:05:35;;;;;;;11.02;7.03;;;10.10;99.90;;;;;;5025359;28;20102;-74
2023/11/01 06:08:03;;;;;;;14.00;8.05;;;10.10;99.90;;;;;;5011856;28;20049;-75
2023/11/01 06:10:30;;;;;;;14.80;7.97;;;10.10;99.90;;;;;;5030580;28;20094;-75
2023/11/01 06:12:57;;;;;;;11.98;7.28;;;10.10;99.90;;;;;;5026900;28;20131;-74
2023/11/01 06:15:24;;;;;;;12.57;7.32;;;10.20;99.90;;;;;;5004733;28;20067;-75
2023/11/01 06:17:51;;;;;;;11.27;6.25;;;10.20;99.90;;;;;;5022099;28;20050;-73
2023/11/01 06:20:18;;;;;;;8.07;6.88;;;10.20;99.90;;;;;;5008654;28;20060;-73
2023/11/01 06:22:45;;;;;;;9.07;6.43;;;10.20;99.90;;;;;;5029594;28;20029;-73
2023/11/01 06:25:12;;;;;;;8.38;5.95;;;10.20;99.90;;;;;;5022881;28;20044;-73
2023/11/01 06:27:39;;;;;;;16.10;6.10;;;10.20;99.90;;;;;;5030927;28;20045;-71
2023/11/01 06:30:07;;;;;;;11.52;6.43;;;10.20;99.90;;;;;;5019370;28;20041;-73
2023/11/01 06:32:35;;;;;;;8.82;6.28;;;10.10;99.90;;;;;;5026702;28;20751;-71
2023/11/01 06:35:03;;;;;;;9.77;6.35;;;10.20;99.90;;;;;;5023157;28;20141;-71
2023/11/01 06:37:30;;;;;;;11.85;6.15;;;10.20;99.90;;;;;;5030154;28;20053;-72
2023/11/01 06:39:57;;;;;;;9.73;5.65;;;10.20;99.90;;;;;;5026719;28;20066;-71
2023/11/01 06:42:24;;;;;;;10.07;5.78;;;10.20;99.90;;;;;;5024373;28;20111;-72
2023/11/01 06:44:50;;;;;;;7.25;5.18;;;10.10;99.90;;;;;;5005520;28;20033;-72
2023/11/01 06:47:17;;;;;;;8.40;5.13;;;10.10;99.90;;;;;;5022318;28;20577;-73
2023/11/01 06:49:44;;;;;;;10.75;5.60;;;10.10;99.90;;;;;;5030232;28;20041;-72
2023/11/01 06:52:11;;;;;;;6.80;4.75;;;10.10;99.90;;;;;;5021348;28;20471;-71
2023/11/01 06:54:40;;;;;;;8.20;5.40;;;10.20;99.90;;;;;;5024806;28;20045;-72
2023/11/01 06:57:07;;;;;;;8.65;4.70;;;10.20;99.90;;;;;;5020631;28;20057;-72
2023/11/01 06:59:34;;;;;;;6.93;3.65;;;10.20;99.90;;;;;;5025529;28;20663;-71
2023/11/01 07:02:00;;;;;;;6.95;4.88;;;10.20;99.90;;;;;;5022163;28;20053;-71
2023/11/01 07:04:28;;;;;;;6.75;4.28;;;10.20;99.90;;;;;;5018237;28;20099;-72
2023/11/01 07:06:55;;;;;;;5.57;4.55;;;10.20;99.90;;;;;;5027958;28;20750;-72
2023/11/01 07:09:22;;;;;;;5.43;4.88;;;10.20;99.90;;;;;;5020662;28;20300;-72
2023/11/01 07:11:49;;;;;;;5.30;3.80;;;10.20;99.90;;;;;;5022174;28;20697;-72
2023/11/01 07:14:17;;;;;;;5.40;4.90;;;10.20;99.90;;;;;;5018808;28;20059;-72
2023/11/01 07:16:45;;;;;;;8.93;4.80;;;10.20;99.90;;;;;;5023031;28;20041;-72
2023/11/01 07:19:13;;;;;;;4.65;4.25;;;10.20;99.90;;;;;;5015157;28;20037;-72
2023/11/01 07:21:40;;;;;;;11.35;4.95;;;10.30;99.90;;;;;;5024533;28;20045;-72
2023/11/01 07:24:08;;;;;;;6.05;4.78;;;10.30;99.90;;;;;;5002880;28;20171;-72
2023/11/01 07:26:35;;;;;;;4.95;4.45;;;10.30;99.90;;;;;;5020286;28;20613;-72
2023/11/01 07:29:03;;;;;;;6.35;4.93;;;10.30;99.90;;;;;;5039820;28;20033;-71
2023/11/01 07:31:30;;;;;;;6.63;5.13;;;10.40;99.90;;;;;;5014042;28;20733;-71
2023/11/01 07:33:57;;;;;;;5.63;4.72;;;10.50;99.90;;;;;;5020855;28;20486;-72
2023/11/01 07:36:24;;;;;;;6.18;4.80;;;10.50;99.90;;;;;;5001785;28;20056;-72
2023/11/01 07:38:50;;;;;;;7.80;4.93;;;10.50;99.90;;;;;;5020139;28;20045;-72
2023/11/01 07:41:17;;;;;;;6.13;5.53;;;10.50;99.90;;;;;;5015452;28;20084;-72
2023/11/01 07:43:44;;;;;;;6.38;4.55;;;10.60;99.90;;;;;;5012945;28;20053;-71
2023/11/01 07:46:11;;;;;;;4.90;4.40;;;10.50;99.90;;;;;;5010640;28;20041;-71
2023/11/01 07:48:38;;;;;;;5.47;4.97;;;10.50;99.90;;;;;;5020793;28;20724;-72
2023/11/01 07:51:05;;;;;;;7.85;5.55;;;10.50;99.90;;;;;;5026520;28;20049;-72
2023/11/01 07:53:33;;;;;;;4.70;4.40;;;10.50;99.90;;;;;;5025803;28;20041;-71
2023/11/01 07:56:01;;;;;;;5.75;5.15;;;10.50;99.90;;;;;;5025801;28;20087;-72
2023/11/01 07:58:29;;;;;;;5.13;4.63;;;10.50;99.90;;;;;;5023176;28;21409;-73
2023/11/01 08:00:56;;;;;;;5.80;5.00;;;10.50;99.90;;;;;;5026319;28;20615;-72
2023/11/01 08:03:24;;;;;;;5.82;5.32;;;10.50;99.90;;;;;;5023693;28;20042;-71
2023/11/01 08:05:51;;;;;;;6.60;5.47;;;10.60;99.90;;;;;;5019423;28;20057;-72
2023/11/01 08:08:18;;;;;;;4.57;4.28;;;10.60;99.90;;;;;;5028719;28;20053;-72
2023/11/01 08:10:45;;;;;;;7.95;7.15;;;10.60;99.90;;;;;;5021668;28;20872;-71
2023/11/01 08:13:12;;;;;;;7.78;7.07;;;10.60;99.90;;;;;;5004172;28;20036;-71
2023/11/01 08:15:39;;;;;;;6.63;6.13;;;10.60;99.90;;;;;;5027611;28;20040;-71
2023/11/01 08:18:05;;;;;;;6.63;6.03;;;10.60;99.90;;;;;;5029325;28;20731;-71
2023/11/01 08:20:33;;;;;;;6.97;5.55;;;10.60;99.90;;;;;;5021955;28;20075;-72
2023/11/01 08:23:00;;;;;;;5.32;4.90;;;10.70;99.90;;;;;;5028668;28;20037;-70
2023/11/01 08:25:27;;;;;;;14.73;9.68;;;10.70;99.90;;;;;;5024229;28;20129;-72
2023/11/01 08:27:53;;;;;;;7.43;5.70;;;10.80;99.90;;;;;;5015319;28;20041;-71
2023/11/01 08:30:21;;;;;;;4.85;4.35;;;10.80;99.90;;;;;;5018869;28;20190;-71
2023/11/01 08:32:47;;;;;;;5.28;4.40;;;10.80;99.90;;;;;;5027479;28;20051;-70
2023/11/01 08:35:14;;;;;;;4.28;3.88;;;10.80;99.90;;;;;;5023515;28;20060;-72
2023/11/01 08:37:41;;;;;;;4.65;4.25;;;10.90;99.90;;;;;;5006041;28;20120;-72
2023/11/01 08:40:09;;;;;;;6.07;4.40;;;10.90;99.90;;;;;;5012534;28;20171;-73
2023/11/01 08:42:36;;;;;;;6.97;4.57;;;11.00;99.90;;;;;;5036211;28;20078;-72
2023/11/01 08:45:03;;;;;;;4.53;3.63;;;11.00;99.90;;;;;;5026636;28;20215;-73
2023/11/01 08:47:40;;;;;;;7.35;4.57;;;11.00;99.90;;;;;;5024666;28;20041;-71
2023/11/01 08:50:14;;;;;;;6.45;5.75;;;11.10;99.90;;;;;;5035123;28;20097;-69
2023/11/01 08:52:45;;;;;;;4.57;4.18;;;11.10;99.90;;;;;;5053891;28;20041;-70
2023/11/01 08:55:13;;;;;;;3.97;3.53;;;11.10;99.90;;;;;;5038630;28;20057;-70
2023/11/01 08:57:42;;;;;;;4.43;3.50;;;11.10;99.90;;;;;;5017234;28;20098;-70
2023/11/01 09:00:09;;;;;;;4.78;4.35;;;11.20;99.90;;;;;;5031492;28;20057;-70
2023/11/01 09:02:36;;;;;;;8.10;4.53;;;11.20;99.90;;;;;;5008724;28;20123;-71
2023/11/01 09:05:03;;;;;;;8.13;4.90;;;11.30;99.90;;;;;;5024486;28;20211;-72
2023/11/01 09:07:30;;;;;;;6.88;5.00;;;11.30;99.90;;;;;;5025733;28;20041;-71
2023/11/01 09:09:57;;;;;;;5.80;5.30;;;11.40;99.90;;;;;;5022153;28;20048;-71
2023/11/01 09:12:28;;;;;;;8.38;4.82;;;11.40;99.90;;;;;;5018057;28;20053;-72
2023/11/01 09:14:55;;;;;;;5.00;4.32;;;11.40;99.90;;;;;;5025165;28;20048;-72
2023/11/01 09:17:22;;;;;;;4.25;3.85;;;11.40;99.90;;;;;;5019918;28;20042;-73
2023/11/01 09:19:49;;;;;;;11.98;4.30;;;11.40;99.90;;;;;;5027374;28;20037;-71
2023/11/01 09:22:17;;;;;;;5.93;3.63;;;11.50;99.90;;;;;;5022348;28;20264;-70
2023/11/01 09:24:43;;;;;;;7.18;4.15;;;11.50;99.90;;;;;;5026680;28;20045;-72
2023/11/01 09:27:10;;;;;;;4.10;3.28;;;11.60;99.90;;;;;;5022643;28;20099;-72
2023/11/01 09:29:36;;;;;;;5.90;4.78;;;11.80;99.90;;;;;;5024854;28;20061;-72
2023/11/01 09:32:04;;;;;;;6.53;4.45;;;11.90;99.90;;;;;;5009211;28;20053;-72
2023/11/01 09:34:32;;;;;;;11.27;3.53;;;12.00;99.90;;;;;;5021322;28;20119;-70
2023/11/01 09:37:00;;;;;;;8.02;4.28;;;12.10;99.90;;;;;;5021994;28;20111;-72
2023/11/01 09:39:26;;;;;;;5.30;4.65;;;12.30;99.90;;;;;;5018222;28;20059;-72
2023/11/01 09:42:03;;;;;;;8.98;4.32;;;12.50;99.90;;;;;;5022854;28;20053;-73
2023/11/01 09:44:30;;;;;;;9.55;4.78;;;12.60;99.90;;;;;;5015980;28;20092;-74
2023/11/01 09:46:58;;;;;;;12.02;6.03;;;12.70;99.90;;;;;;5022426;28;20033;-71
2023/11/01 09:49:30;;;;;;;6.63;6.03;;;12.80;99.90;;;;;;5028157;28;20067;-71
2023/11/01 09:52:00;;;;;;;6.03;5.63;;;13.00;99.90;;;;;;5024609;28;20040;-70
2023/11/01 09:54:46;;;;;;;9.02;6.53;;;13.20;99.90;;;;;;5024176;28;20110;-70
2023/11/01 09:57:22;;;;;;;11.05;8.32;;;13.30;99.90;;;;;;5030333;28;20045;-72
2023/11/01 09:59:51;;;;;;;10.20;9.30;;;13.30;99.90;;;;;;5026976;28;20528;-72
2023/11/01 10:02:24;;;;;;;12.00;10.38;;;13.30;99.90;;;;;;5019410;28;20051;-70
2023/11/01 10:04:56;;;;;;;11.98;9.32;;;13.40;99.90;;;;;;5020481;28;20095;-71
2023/11/01 10:07:26;;;;;;;14.70;11.85;;;13.30;99.90;;;;;;5028247;28;20041;-72
2023/11/01 10:09:52;;;;;;;11.73;10.57;;;13.30;99.90;;;;;;5024806;28;20061;-70
2023/11/01 10:12:19;;;;;;;10.80;9.73;;;13.30;99.90;;;;;;5025513;28;20040;-71
2023/11/01 10:14:46;;;;;;;11.18;9.73;;;13.20;99.90;;;;;;5022541;28;20048;-71
2023/11/01 10:17:13;;;;;;;11.68;10.27;;;13.20;99.90;;;;;;5027772;28;20049;-74
2023/11/01 10:19:43;;;;;;;11.88;10.75;;;13.20;99.90;;;;;;5021929;28;23210;-71
2023/11/01 10:22:13;;;;;;;11.20;10.15;;;13.30;99.90;;;;;;5022837;28;20155;-72
2023/11/01 10:24:44;;;;;;;18.90;10.63;;;13.40;99.90;;;;;;5018561;28;20045;-73
2023/11/01 10:27:10;;;;;;;9.25;8.45;;;13.50;99.90;;;;;;5023597;28;20041;-73
2023/11/01 10:29:43;;;;;;;10.45;8.95;;;13.50;99.90;;;;;;5020753;28;20106;-74
2023/11/01 10:32:10;;;;;;;8.98;8.07;;;13.50;99.90;;;;;;5025325;28;20573;-74
2023/11/01 10:34:37;;;;;;;9.20;8.43;;;13.40;99.90;;;;;;5005521;28;20049;-75
2023/11/01 10:37:05;;;;;;;9.30;8.45;;;13.20;99.90;;;;;;5025456;28;20049;-73
2023/11/01 10:39:35;;;;;;;10.52;7.88;;;13.20;99.90;;;;;;5024859;28;20127;-74
2023/11/01 10:42:04;;;;;;;7.82;7.32;;;13.20;99.90;;;;;;5012289;28;20749;-73
2023/11/01 10:44:32;;;;;;;8.70;7.90;;;13.20;99.90;;;;;;5027451;28;20079;-75
2023/11/01 10:47:00;;;;;;;7.60;7.00;;;13.20;99.90;;;;;;5025547;28;20060;-73
2023/11/01 10:49:28;;;;;;;8.60;7.57;;;13.20;99.90;;;;;;5021125;28;20068;-72
2023/11/01 10:51:56;;;;;;;11.43;8.15;;;13.20;99.90;;;;;;5022880;28;20037;-73
2023/11/01 10:54:24;;;;;;;11.23;8.15;;;13.20;99.90;;;;;;5018872;28;20553;-71
2023/11/01 10:56:52;;;;;;;8.48;7.78;;;13.30;99.90;;;;;;5027971;28;20042;-72
2023/11/01 10:59:34;;;;;;;9.70;8.10;;;13.40;99.90;;;;;;5021741;28;20041;-72
2023/11/01 11:02:16;;;;;;;9.57;8.70;;;13.40;99.90;;;;;;5024815;28;20048;-74
2023/11/01 11:04:56;;;;;;;9.93;9.13;;;13.60;99.90;;;;;;5025823;28;20057;-72
2023/11/01 11:07:42;;;;;;;14.32;9.20;;;13.60;99.90;;;;;;5024549;28;20524;-71
2023/11/01 11:10:27;;;;;;;13.38;10.15;;;13.70;99.90;;;;;;5024787;28;20671;-72
2023/11/01 11:13:09;;;;;;;12.07;10.98;;;13.70;99.90;;;;;;5032025;28;20161;-72
2023/11/01 11:15:56;;;;;;;14.05;13.02;;;13.70;99.90;;;;;;5006847;28;20034;-73
2023/11/01 11:18:24;;;;;;;16.25;14.52;;;13.70;99.90;;;;;;5027140;28;20093;-73
2023/11/01 11:20:52;;;;;;;15.95;14.65;;;13.60;99.90;;;;;;5040565;28;20053;-72
2023/11/01 11:23:30;;;;;;;16.63;15.25;;;13.80;99.90;;;;;;5030922;28;20041;-72
2023/11/01 11:25:59;;;;;;;16.83;15.07;;;13.70;99.90;;;;;;5027981;28;21593;-74
2023/11/01 11:28:32;;;;;;;21.13;16.40;;;13.70;99.90;;;;;;5015049;28;20045;-73
2023/11/01 11:31:07;;;;;;;15.32;14.23;;;13.70;99.90;;;;;;5012497;28;20033;-73
2023/11/01 11:33:55;;;;;;;15.93;14.50;;;13.80;99.90;;;;;;5027574;28;20053;-73
2023/11/01 11:36:23;;;;;;;15.45;14.40;;;13.80;99.90;;;;;;5044880;28;20658;-75
2023/11/01 11:39:05;;;;;;;15.73;14.52;;;13.80;99.90;;;;;;5026939;28;20099;-73
2023/11/01 11:41:38;;;;;;;20.13;18.35;;;13.80;99.90;;;;;;5009826;28;20081;-74
2023/11/01 11:44:15;;;;;;;15.57;14.50;;;13.80;99.90;;;;;;5029089;28;20130;-75
2023/11/01 11:47:20;;;;;;;16.25;14.98;;;13.70;99.90;;;;;;5024419;28;20041;-75
2023/11/01 11:49:47;;;;;;;18.97;17.00;;;13.70;99.90;;;;;;5036696;28;22569;-75
2023/11/01 11:52:17;;;;;;;17.17;15.68;;;13.80;99.90;;;;;;5027972;28;20041;-74
2023/11/01 11:54:44;;;;;;;15.80;14.68;;;13.70;99.90;;;;;;5027732;28;20619;-73
2023/11/01 11:57:16;;;;;;;16.33;15.02;;;13.70;99.90;;;;;;5028744;28;20044;-74
2023/11/01 11:59:43;;;;;;;18.50;16.92;;;13.70;99.90;;;;;;5023957;28;20053;-75
2023/11/01 12:02:15;;;;;;;16.80;15.68;;;13.60;99.90;;;;;;5024110;28;20067;-73
2023/11/01 12:04:44;;;;;;;17.02;15.80;;;13.60;99.90;;;;;;5027456;28;20118;-75
2023/11/01 12:07:21;;;;;;;15.85;14.45;;;13.40;99.90;;;;;;5026381;28;20045;-74
2023/11/01 12:14:24;;;;;;;15.77;13.80;;;13.40;99.90;;;;;;5024329;28;20048;-75
2023/11/01 12:17:02;;;;;;;15.43;13.90;;;13.30;99.90;;;;;;5041284;28;20432;-74
2023/11/01 12:19:41;;;;;;;18.00;14.98;;;13.30;99.90;;;;;;5038149;28;20053;-75
2023/11/01 12:22:21;;;;;;;15.70;14.38;;;13.20;99.90;;;;;;5027724;28;20059;-76
2023/11/01 12:24:51;;;;;;;17.60;16.15;;;13.20;99.90;;;;;;5019052;28;20656;-75
2023/11/01 12:27:27;;;;;;;18.15;16.63;;;13.20;99.90;;;;;;5034351;28;20045;-78
2023/11/01 12:29:55;;;;;;;21.98;19.88;;;13.20;99.90;;;;;;5022492;28;20099;-76
2023/11/01 12:32:42;;;;;;;21.02;18.90;;;13.10;99.90;;;;;;5027064;28;20049;-75
2023/11/01 12:35:11;;;;;;;23.88;19.05;;;13.10;99.90;;;;;;5030571;28;20565;-75
2023/11/01 12:37:38;;;;;;;19.30;17.58;;;13.10;99.90;;;;;;5026166;28;20080;-75
2023/11/01 12:40:11;;;;;;;17.45;15.77;;;13.10;99.90;;;;;;5017403;28;20034;-77
2023/11/01 12:42:46;;;;;;;14.88;13.50;;;13.30;99.90;;;;;;5025581;28;20052;-75
2023/11/01 12:45:14;;;;;;;;;;;13.40;99.90;;;;;;5007820;28;20041;-75
2023/11/01 12:47:47;;;;;;;19.35;17.48;;;13.40;99.90;;;;;;5028379;28;20666;-76
2023/11/01 12:50:20;;;;;;;16.38;14.98;;;13.30;99.90;;;;;;5021781;28;20041;-76
2023/11/01 12:52:48;;;;;;;20.60;17.50;;;13.30;99.90;;;;;;5019377;28;20580;-76